createdAt,value
2018-10-09T00:01:29.261Z,13.10
2018-10-09T00:03:33.733Z,19.83
2018-10-09T00:05:37.430Z,13.43
2018-10-09T00:07:41.174Z,11.40
2018-10-09T00:09:44.819Z,13.00
2018-10-09T00:11:48.472Z,17.13
2018-10-09T00:13:52.244Z,11.70
2018-10-09T00:15:55.916Z,13.63
2018-10-09T00:17:59.667Z,11.80
2018-10-09T00:20:03.432Z,11.57
2018-10-09T00:22:07.201Z,11.77
2018-10-09T00:24:11.015Z,13.30
2018-10-09T00:26:14.859Z,12.03
2018-10-09T00:28:18.502Z,18.07
2018-10-09T00:30:22.202Z,13.63
2018-10-09T00:32:25.930Z,12.93
2018-10-09T00:34:29.624Z,15.07
2018-10-09T00:36:33.387Z,18.67
2018-10-09T00:38:37.077Z,14.87
2018-10-09T00:40:40.754Z,13.63
2018-10-09T00:42:44.443Z,11.27
2018-10-09T00:44:48.188Z,13.63
2018-10-09T00:46:51.864Z,12.73
2018-10-09T00:48:55.557Z,12.87
2018-10-09T00:50:59.292Z,16.63
2018-10-09T00:53:02.954Z,19.00
2018-10-09T00:55:07.309Z,12.00
2018-10-09T00:57:11.051Z,13.70
2018-10-09T00:59:14.764Z,11.07
2018-10-09T01:01:18.467Z,11.97
2018-10-09T01:03:22.958Z,15.10
2018-10-09T01:05:26.681Z,13.33
2018-10-09T01:07:30.441Z,14.77
2018-10-09T01:09:34.889Z,14.73
2018-10-09T01:11:38.559Z,12.10
2018-10-09T01:13:42.259Z,13.43
2018-10-09T01:15:45.985Z,13.97
2018-10-09T01:17:49.640Z,15.80
2018-10-09T01:19:53.356Z,13.67
2018-10-09T01:21:57.084Z,11.37
2018-10-09T01:24:00.803Z,14.10
2018-10-09T01:26:04.512Z,14.93
2018-10-09T01:28:08.150Z,19.90
2018-10-09T01:30:12.539Z,20.20
2018-10-09T01:32:16.232Z,16.33
2018-10-09T01:34:19.895Z,15.37
2018-10-09T01:36:23.584Z,15.70
2018-10-09T01:38:27.228Z,14.70
2018-10-09T01:40:30.889Z,16.27
2018-10-09T01:42:34.576Z,19.27
2018-10-09T01:44:43.522Z,15.97
2018-10-09T01:46:47.298Z,15.90
2018-10-09T01:48:51.009Z,16.20
2018-10-09T01:50:54.748Z,17.40
2018-10-09T01:52:59.096Z,19.03
2018-10-09T01:55:03.332Z,16.80
2018-10-09T01:57:07.242Z,15.07
2018-10-09T01:59:10.891Z,14.50
2018-10-09T02:01:14.538Z,18.97
2018-10-09T02:03:18.540Z,18.70
2018-10-09T02:05:22.310Z,18.80
2018-10-09T02:07:26.788Z,15.90
2018-10-09T02:09:30.427Z,18.07
2018-10-09T02:11:34.120Z,20.83
2018-10-09T02:13:37.853Z,18.10
2018-10-09T02:15:41.612Z,16.83
2018-10-09T02:17:47.117Z,17.50
2018-10-09T02:19:50.811Z,14.27
2018-10-09T02:21:54.603Z,16.90
2018-10-09T02:23:58.817Z,16.17
2018-10-09T02:26:02.596Z,17.67
2018-10-09T02:28:06.305Z,17.43
2018-10-09T02:30:11.443Z,16.97
2018-10-09T02:32:15.273Z,18.03
2018-10-09T02:34:18.938Z,17.80
2018-10-09T02:36:23.074Z,19.00
2018-10-09T02:38:27.223Z,18.07
2018-10-09T02:40:30.969Z,15.37
2018-10-09T02:42:34.717Z,18.80
2018-10-09T02:44:40.102Z,18.90
2018-10-09T02:46:44.913Z,22.80
2018-10-09T02:48:48.691Z,17.67
2018-10-09T02:50:52.444Z,20.00
2018-10-09T02:52:56.185Z,17.43
2018-10-09T02:55:00.371Z,14.73
2018-10-09T02:57:04.078Z,16.23
2018-10-09T02:59:08.690Z,18.33
2018-10-09T03:01:12.507Z,13.53
2018-10-09T03:03:16.236Z,16.67
2018-10-09T03:05:21.175Z,14.50
2018-10-09T03:07:24.925Z,14.60
2018-10-09T03:09:29.595Z,18.50
2018-10-09T03:11:33.367Z,14.53
2018-10-09T03:13:40.014Z,17.07
2018-10-09T03:15:43.696Z,17.23
2018-10-09T03:17:47.552Z,17.97
2018-10-09T03:19:51.199Z,15.73
2018-10-09T03:21:54.969Z,13.03
2018-10-09T03:23:58.836Z,14.97
2018-10-09T03:26:02.543Z,16.67
2018-10-09T03:28:06.669Z,16.60
2018-10-09T03:30:11.753Z,13.93
2018-10-09T03:32:15.521Z,15.40
2018-10-09T03:34:19.197Z,14.80
2018-10-09T03:36:22.881Z,12.73
2018-10-09T03:38:31.072Z,13.67
2018-10-09T03:40:34.752Z,14.77
2018-10-09T03:42:38.465Z,13.90
2018-10-09T03:44:42.206Z,14.23
2018-10-09T03:46:47.539Z,16.10
2018-10-09T03:48:51.523Z,18.10
2018-10-09T03:50:59.093Z,13.77
2018-10-09T03:53:02.779Z,15.23
2018-10-09T03:55:07.809Z,11.97
2018-10-09T03:57:11.664Z,13.20
2018-10-09T03:59:15.332Z,13.87
2018-10-09T04:01:19.858Z,14.70
2018-10-09T04:03:23.611Z,15.40
2018-10-09T04:05:27.609Z,14.77
2018-10-09T04:07:31.364Z,15.90
2018-10-09T04:09:35.173Z,15.90
2018-10-09T04:11:38.952Z,18.37
2018-10-09T04:13:42.679Z,22.23
2018-10-09T04:15:46.544Z,15.23
2018-10-09T04:17:50.323Z,18.27
2018-10-09T04:19:54.253Z,17.43
2018-10-09T04:21:57.973Z,14.77
2018-10-09T04:24:01.756Z,18.17
2018-10-09T04:26:05.641Z,19.33
2018-10-09T04:28:09.485Z,14.30
2018-10-09T04:30:13.903Z,18.87
2018-10-09T04:32:17.753Z,16.67
2018-10-09T04:34:21.920Z,18.90
2018-10-09T04:36:25.729Z,20.17
2018-10-09T04:38:29.557Z,15.03
2018-10-09T04:40:33.339Z,17.47
2018-10-09T04:42:42.066Z,24.20
2018-10-09T04:44:45.803Z,18.40
2018-10-09T04:46:49.555Z,18.30
2018-10-09T04:48:53.724Z,19.97
2018-10-09T04:50:57.676Z,26.27
2018-10-09T04:53:01.537Z,21.70
2018-10-09T04:55:05.857Z,23.90
2018-10-09T04:57:10.601Z,19.63
2018-10-09T04:59:16.899Z,22.60
2018-10-09T05:01:20.698Z,21.70
2018-10-09T05:03:24.545Z,22.13
2018-10-09T05:05:29.126Z,20.50
2018-10-09T05:07:33.147Z,22.23
2018-10-09T05:09:36.987Z,14.43
2018-10-09T05:11:41.026Z,15.57
2018-10-09T05:13:45.322Z,17.20
2018-10-09T05:15:49.164Z,17.57
2018-10-09T05:17:52.931Z,16.17
2018-10-09T05:19:58.229Z,15.03
2018-10-09T05:22:01.975Z,19.23
2018-10-09T05:24:05.905Z,18.70
2018-10-09T05:26:09.839Z,18.13
2018-10-09T05:28:13.620Z,17.03
2018-10-09T05:30:17.397Z,16.47
2018-10-09T05:32:21.256Z,18.60
2018-10-09T05:34:28.224Z,22.00
2018-10-09T05:36:31.985Z,25.50
2018-10-09T05:38:35.768Z,23.03
2018-10-09T05:40:39.556Z,26.93
2018-10-09T05:42:43.484Z,25.80
2018-10-09T05:44:47.313Z,20.20
2018-10-09T05:46:51.151Z,20.07
2018-10-09T05:48:55.070Z,22.93
2018-10-09T05:50:58.919Z,19.87
2018-10-09T05:53:02.612Z,23.57
2018-10-09T05:55:07.248Z,17.40
2018-10-09T05:57:11.260Z,21.83
2018-10-09T05:59:15.859Z,17.17
2018-10-09T06:01:19.587Z,20.63
2018-10-09T06:03:24.298Z,15.50
2018-10-09T06:05:30.585Z,20.20
2018-10-09T06:07:34.838Z,18.23
2018-10-09T06:09:38.627Z,23.33
2018-10-09T06:11:43.247Z,19.13
2018-10-09T06:13:47.008Z,19.87
2018-10-09T06:15:50.940Z,17.13
2018-10-09T06:17:54.772Z,20.37
2018-10-09T06:19:59.000Z,22.73
2018-10-09T06:22:02.786Z,22.00
2018-10-09T06:24:06.684Z,18.77
2018-10-09T06:26:10.532Z,19.33
2018-10-09T06:28:14.257Z,19.93
2018-10-09T06:30:17.986Z,18.00
2018-10-09T06:32:21.693Z,18.10
2018-10-09T06:34:25.466Z,23.10
2018-10-09T06:36:29.235Z,17.77
2018-10-09T06:38:32.957Z,20.30
2018-10-09T06:40:37.250Z,19.10
2018-10-09T06:42:43.268Z,16.90
2018-10-09T06:44:46.955Z,21.03
2018-10-09T06:46:50.733Z,27.20
2018-10-09T06:48:54.578Z,23.83
2018-10-09T06:50:59.601Z,23.53
2018-10-09T06:53:03.323Z,21.13
2018-10-09T06:55:07.049Z,19.87
2018-10-09T06:57:11.168Z,27.60
2018-10-09T06:59:14.988Z,24.50
2018-10-09T07:01:18.734Z,24.77
2018-10-09T07:03:22.503Z,22.60
2018-10-09T07:05:26.281Z,23.87
2018-10-09T07:07:30.318Z,25.53
2018-10-09T07:09:34.105Z,21.13
2018-10-09T07:11:39.749Z,22.83
2018-10-09T07:13:43.535Z,24.53
2018-10-09T07:15:47.748Z,21.90
2018-10-09T07:17:51.531Z,23.83
2018-10-09T07:19:55.297Z,26.03
2018-10-09T07:21:58.974Z,30.40
2018-10-09T07:24:02.653Z,25.70
2018-10-09T07:26:06.408Z,28.90
2018-10-09T07:28:10.144Z,28.10
2018-10-09T07:30:13.844Z,31.90
2018-10-09T07:32:17.575Z,27.87
2018-10-09T07:34:21.321Z,29.27
2018-10-09T07:36:24.991Z,25.27
2018-10-09T07:38:28.654Z,31.63
2018-10-09T07:40:32.303Z,24.20
2018-10-09T07:42:35.996Z,28.10
2018-10-09T07:44:39.915Z,26.00
2018-10-09T07:46:44.406Z,22.67
2018-10-09T07:48:48.175Z,21.23
2018-10-09T07:50:51.929Z,25.37
2018-10-09T07:52:55.717Z,26.93
2018-10-09T07:54:59.527Z,26.37
2018-10-09T07:57:03.251Z,24.60
2018-10-09T07:59:06.994Z,27.13
2018-10-09T08:01:10.781Z,26.00
2018-10-09T08:03:14.558Z,22.60
2018-10-09T08:05:18.290Z,25.10
2018-10-09T08:07:22.031Z,27.60
2018-10-09T08:09:25.724Z,26.03
2018-10-09T08:11:29.443Z,25.47
2018-10-09T08:13:33.183Z,26.07
2018-10-09T08:15:36.894Z,25.63
2018-10-09T08:17:40.588Z,26.00
2018-10-09T08:19:44.261Z,23.50
2018-10-09T08:21:47.909Z,27.27
2018-10-09T08:23:51.666Z,30.60
2018-10-09T08:25:55.326Z,32.50
2018-10-09T08:27:59.106Z,26.37
2018-10-09T08:30:02.776Z,28.63
2018-10-09T08:32:06.513Z,26.10
2018-10-09T08:34:10.459Z,30.63
2018-10-09T08:36:14.222Z,28.83
2018-10-09T08:38:18.352Z,28.70
2018-10-09T08:40:22.329Z,29.83
2018-10-09T08:42:25.983Z,26.30
2018-10-09T08:44:29.661Z,27.10
2018-10-09T08:46:33.344Z,28.97
2018-10-09T08:48:37.156Z,29.10
2018-10-09T08:50:40.883Z,28.10
2018-10-09T08:52:44.664Z,24.80
2018-10-09T08:54:48.407Z,25.80
2018-10-09T08:56:52.107Z,28.20
2018-10-09T08:58:55.854Z,30.67
2018-10-09T09:00:59.576Z,26.90
2018-10-09T09:03:03.343Z,27.93
2018-10-09T09:05:08.474Z,31.60
2018-10-09T09:07:12.283Z,30.43
2018-10-09T09:09:16.097Z,30.10
2018-10-09T09:11:19.889Z,33.97
2018-10-09T09:13:23.614Z,29.43
2018-10-09T09:15:27.479Z,26.47
2018-10-09T09:17:31.282Z,28.60
2018-10-09T09:19:35.202Z,31.67
2018-10-09T09:21:39.993Z,32.10
2018-10-09T09:23:44.089Z,28.57
2018-10-09T09:25:48.065Z,30.77
2018-10-09T09:27:51.888Z,31.43
2018-10-09T09:29:55.665Z,26.00
2018-10-09T09:31:59.488Z,28.60
2018-10-09T09:34:03.236Z,29.63
2018-10-09T09:36:07.088Z,29.27
2018-10-09T09:38:10.913Z,31.50
2018-10-09T09:40:14.723Z,30.90
2018-10-09T09:42:18.501Z,27.20
2018-10-09T09:44:22.431Z,25.30
2018-10-09T09:46:27.359Z,23.77
2018-10-09T09:48:31.099Z,31.73
2018-10-09T09:50:34.880Z,28.20
2018-10-09T09:52:38.612Z,27.20
2018-10-09T09:54:42.417Z,25.43
2018-10-09T09:56:46.172Z,24.77
2018-10-09T09:58:50.805Z,27.93
2018-10-09T10:00:58.441Z,27.53
2018-10-09T10:03:02.159Z,25.10
2018-10-09T10:05:12.771Z,26.27
2018-10-09T10:07:16.507Z,29.10
2018-10-09T10:09:20.373Z,26.13
2018-10-09T10:11:24.078Z,25.90
2018-10-09T10:13:27.958Z,28.50
2018-10-09T10:15:31.760Z,24.03
2018-10-09T10:17:35.443Z,22.40
2018-10-09T10:19:39.137Z,25.10
2018-10-09T10:21:42.880Z,29.90
2018-10-09T10:23:46.829Z,27.20
2018-10-09T10:25:50.850Z,22.67
2018-10-09T10:27:54.854Z,24.80
2018-10-09T10:29:58.772Z,24.20
2018-10-09T10:32:02.800Z,27.87
2018-10-09T10:34:07.014Z,32.87
2018-10-09T10:36:11.098Z,25.00
2018-10-09T10:38:15.033Z,19.83
2018-10-09T10:40:19.179Z,25.20
2018-10-09T10:42:23.120Z,22.63
2018-10-09T10:44:27.095Z,22.80
2018-10-09T10:46:36.424Z,22.50
2018-10-09T10:48:55.452Z,22.40
2018-10-09T10:51:01.443Z,23.63
2018-10-09T10:53:05.452Z,20.00
2018-10-09T10:55:09.508Z,22.43
2018-10-09T10:57:13.450Z,17.70
2018-10-09T10:59:17.515Z,18.90
2018-10-09T11:01:22.174Z,16.73
2018-10-09T11:03:26.187Z,18.00
2018-10-09T11:05:30.230Z,16.53
2018-10-09T11:07:34.124Z,17.50
2018-10-09T11:09:39.291Z,18.03
2018-10-09T11:11:43.400Z,19.47
2018-10-09T11:13:47.601Z,25.73
2018-10-09T11:15:51.509Z,18.27
2018-10-09T11:17:55.503Z,15.70
2018-10-09T11:19:59.376Z,16.33
2018-10-09T11:22:03.405Z,17.97
2018-10-09T11:24:07.504Z,18.73
2018-10-09T11:26:11.503Z,18.50
2018-10-09T11:28:15.464Z,19.83
2018-10-09T11:30:20.341Z,21.03
2018-10-09T11:32:24.457Z,17.50
2018-10-09T11:34:28.533Z,17.90
2018-10-09T11:36:32.769Z,21.00
2018-10-09T11:38:36.780Z,15.57
2018-10-09T11:40:41.045Z,19.20
2018-10-09T11:42:45.070Z,17.43
2018-10-09T11:44:49.062Z,16.77
2018-10-09T11:46:53.004Z,16.97
2018-10-09T11:48:57.124Z,17.10
2018-10-09T11:51:01.247Z,17.63
2018-10-09T11:53:05.203Z,18.87
2018-10-09T11:55:09.336Z,16.83
2018-10-09T11:57:13.249Z,16.10
2018-10-09T11:59:17.226Z,17.40
2018-10-09T12:01:21.505Z,18.50
2018-10-09T12:03:25.412Z,16.63
2018-10-09T12:05:29.385Z,15.80
2018-10-09T12:07:33.506Z,22.30
2018-10-09T12:09:37.750Z,17.87
2018-10-09T12:11:42.376Z,17.80
2018-10-09T12:13:46.340Z,17.87
2018-10-09T12:15:50.365Z,16.70
2018-10-09T12:17:54.346Z,19.90
2018-10-09T12:19:58.807Z,17.57
2018-10-09T12:22:02.920Z,19.93
2018-10-09T12:24:06.933Z,24.13
2018-10-09T12:26:11.209Z,14.70
2018-10-09T12:28:15.352Z,17.43
2018-10-09T12:30:20.399Z,17.80
2018-10-09T12:32:25.184Z,17.13
2018-10-09T12:34:29.259Z,17.10
2018-10-09T12:36:33.265Z,18.53
2018-10-09T12:38:38.249Z,17.27
2018-10-09T12:40:42.323Z,17.30
2018-10-09T12:42:46.443Z,18.80
2018-10-09T12:44:50.334Z,35.17
2018-10-09T12:46:55.405Z,26.47
2018-10-09T12:49:01.341Z,19.70
2018-10-09T12:51:05.872Z,16.50
2018-10-09T12:53:09.893Z,20.23
2018-10-09T12:55:13.790Z,22.83
2018-10-09T12:57:18.185Z,26.93
2018-10-09T12:59:22.408Z,19.87
2018-10-09T13:01:26.570Z,19.30
2018-10-09T13:03:30.862Z,22.33
2018-10-09T13:05:35.182Z,23.00
2018-10-09T13:07:39.127Z,20.40
2018-10-09T13:09:43.171Z,20.20
2018-10-09T13:11:47.201Z,23.23
2018-10-09T13:13:51.210Z,20.30
2018-10-09T13:15:55.189Z,17.50
2018-10-09T13:17:59.271Z,21.53
2018-10-09T13:20:03.439Z,21.43
2018-10-09T13:22:07.613Z,22.30
2018-10-09T13:24:11.791Z,18.90
2018-10-09T13:26:15.965Z,22.20
2018-10-09T13:28:20.085Z,18.50
2018-10-09T13:30:24.184Z,20.17
2018-10-09T13:32:28.276Z,22.37
2018-10-09T13:34:32.638Z,22.47
2018-10-09T13:36:36.716Z,20.10
2018-10-09T13:38:40.368Z,17.60
2018-10-09T13:40:44.093Z,19.50
2018-10-09T13:42:47.759Z,20.47
2018-10-09T13:44:52.229Z,18.90
2018-10-09T13:46:56.326Z,15.60
2018-10-09T13:48:59.975Z,16.47
2018-10-09T13:51:03.688Z,15.40
2018-10-09T13:53:07.395Z,16.53
2018-10-09T13:55:11.166Z,22.73
2018-10-09T13:57:14.887Z,18.40
2018-10-09T13:59:18.559Z,22.37
2018-10-09T14:01:22.241Z,20.60
2018-10-09T14:03:25.885Z,20.40
2018-10-09T14:05:29.925Z,20.03
2018-10-09T14:07:33.574Z,28.10
2018-10-09T14:09:37.292Z,26.20
2018-10-09T14:11:41.066Z,21.67
2018-10-09T14:13:44.702Z,22.17
2018-10-09T14:15:48.405Z,23.33
2018-10-09T14:17:52.902Z,26.47
2018-10-09T14:19:57.244Z,19.23
2018-10-09T14:22:01.044Z,22.30
2018-10-09T14:24:04.812Z,23.20
2018-10-09T14:26:08.547Z,22.80
2018-10-09T14:28:12.218Z,23.40
2018-10-09T14:30:15.931Z,21.13
2018-10-09T14:32:19.575Z,22.70
2018-10-09T14:34:23.637Z,28.37
2018-10-09T14:36:27.354Z,21.07
2018-10-09T14:38:31.020Z,24.70
2018-10-09T14:40:34.709Z,24.90
2018-10-09T14:42:38.912Z,20.77
2018-10-09T14:44:43.019Z,24.93
2018-10-09T14:46:46.963Z,26.73
2018-10-09T14:48:57.077Z,24.63
2018-10-09T14:51:01.106Z,32.50
2018-10-09T14:53:05.086Z,27.00
2018-10-09T14:55:08.927Z,28.23
2018-10-09T14:57:13.642Z,21.63
2018-10-09T14:59:17.367Z,30.63
2018-10-09T15:01:21.093Z,23.80
2018-10-09T15:03:24.941Z,26.73
2018-10-09T15:05:29.014Z,26.83
2018-10-09T15:07:32.841Z,23.73
2018-10-09T15:09:36.867Z,26.87
2018-10-09T15:11:42.701Z,30.50
2018-10-09T15:13:46.495Z,29.40
2018-10-09T15:15:50.245Z,30.10
2018-10-09T15:17:55.736Z,27.00
2018-10-09T15:20:00.059Z,38.10
2018-10-09T15:22:04.464Z,29.40
2018-10-09T15:24:09.694Z,30.90
2018-10-09T15:26:13.386Z,26.03
2018-10-09T15:28:17.035Z,27.00
2018-10-09T15:30:20.713Z,32.13
2018-10-09T15:32:24.423Z,27.63
2018-10-09T15:34:28.120Z,37.47
2018-10-09T15:36:31.873Z,30.20
2018-10-09T15:38:35.560Z,35.10
2018-10-09T15:40:39.440Z,33.80
2018-10-09T15:42:43.119Z,31.97
2018-10-09T15:44:46.759Z,36.43
2018-10-09T15:46:50.433Z,35.10
2018-10-09T15:48:54.101Z,31.27
2018-10-09T15:50:57.905Z,33.10
2018-10-09T15:53:01.599Z,29.87
2018-10-09T15:55:05.344Z,35.10
2018-10-09T15:57:09.294Z,33.43
2018-10-09T15:59:12.949Z,38.13
2018-10-09T16:01:16.603Z,40.20
2018-10-09T16:03:20.393Z,39.90
2018-10-09T16:05:24.035Z,36.77
2018-10-09T16:07:27.703Z,42.73
2018-10-09T16:09:31.327Z,38.03
2018-10-09T16:11:34.963Z,43.90
2018-10-09T16:13:38.620Z,44.03
2018-10-09T16:15:42.269Z,40.87
2018-10-09T16:17:45.976Z,42.00
2018-10-09T16:19:49.616Z,36.80
2018-10-09T16:21:53.247Z,43.30
2018-10-09T16:23:56.992Z,36.77
2018-10-09T16:26:00.626Z,41.77
2018-10-09T16:28:04.300Z,38.90
2018-10-09T16:30:08.147Z,38.50
2018-10-09T16:32:11.813Z,38.70
2018-10-09T16:34:15.521Z,32.80
2018-10-09T16:36:19.298Z,40.13
2018-10-09T16:38:23.411Z,39.67
2018-10-09T16:40:27.213Z,44.10
2018-10-09T16:42:34.152Z,40.77
2018-10-09T16:44:38.474Z,38.60
2018-10-09T16:46:42.741Z,43.17
2018-10-09T16:48:46.544Z,37.27
2018-10-09T16:50:51.070Z,37.63
2018-10-09T16:52:55.545Z,37.77
2018-10-09T16:55:00.022Z,41.00
2018-10-09T16:57:03.959Z,39.87
2018-10-09T16:59:10.252Z,43.90
2018-10-09T17:01:19.232Z,42.07
2018-10-09T17:03:25.322Z,38.67
2018-10-09T17:05:32.017Z,33.90
2018-10-09T17:07:36.219Z,44.90
2018-10-09T17:09:40.365Z,35.57
2018-10-09T17:11:45.040Z,35.00
2018-10-09T17:13:50.522Z,36.50
2018-10-09T17:15:54.843Z,31.80
2018-10-09T17:18:00.142Z,34.73
2018-10-09T17:20:04.727Z,32.90
2018-10-09T17:22:09.054Z,30.07
2018-10-09T17:24:13.249Z,29.47
2018-10-09T17:26:19.122Z,33.07
2018-10-09T17:28:23.641Z,31.23
2018-10-09T17:30:30.023Z,29.10
2018-10-09T17:32:33.938Z,28.20
2018-10-09T17:34:38.405Z,33.30
2018-10-09T17:36:43.994Z,40.83
2018-10-09T17:38:48.272Z,33.87
2018-10-09T17:40:52.789Z,29.63
2018-10-09T17:42:57.190Z,29.53
2018-10-09T17:45:01.611Z,30.40
2018-10-09T17:47:08.349Z,30.50
2018-10-09T17:49:13.717Z,32.73
2018-10-09T17:51:17.988Z,26.50
2018-10-09T17:53:23.687Z,30.00
2018-10-09T17:55:29.362Z,32.70
2018-10-09T17:57:34.647Z,24.07
2018-10-09T17:59:39.173Z,30.37
2018-10-09T18:01:42.999Z,24.90
2018-10-09T18:03:48.349Z,27.23
2018-10-09T18:05:52.762Z,28.83
2018-10-09T18:07:59.619Z,28.90
2018-10-09T18:10:07.151Z,32.00
2018-10-09T18:12:11.314Z,36.20
2018-10-09T18:14:16.596Z,34.23
2018-10-09T18:16:22.432Z,30.47
2018-10-09T18:18:29.077Z,30.53
2018-10-09T18:20:38.317Z,30.47
2018-10-09T18:22:45.980Z,32.33
2018-10-09T18:24:53.377Z,27.67
2018-10-09T18:26:59.912Z,26.37
2018-10-09T18:29:04.285Z,35.20
2018-10-09T18:31:11.967Z,25.57
2018-10-09T18:33:19.758Z,24.70
2018-10-09T18:35:25.928Z,26.77
2018-10-09T18:37:34.403Z,42.37
2018-10-09T18:39:41.731Z,52.97
2018-10-09T18:41:49.150Z,41.10
2018-10-09T18:43:55.666Z,33.67
2018-10-09T18:46:02.098Z,37.47
2018-10-09T18:48:07.420Z,36.20
2018-10-09T18:50:14.349Z,35.60
2018-10-09T18:52:19.746Z,35.53
2018-10-09T18:54:25.435Z,32.63
2018-10-09T18:56:30.503Z,36.17
2018-10-09T18:58:36.316Z,36.10
2018-10-09T19:00:40.652Z,33.00
2018-10-09T19:02:45.134Z,43.10
2018-10-09T19:04:52.138Z,46.70
2018-10-09T19:07:03.275Z,41.30
2018-10-09T19:09:12.570Z,45.17
2018-10-09T19:11:18.549Z,38.57
2018-10-09T19:13:23.818Z,45.77
2018-10-09T19:15:29.190Z,37.77
2018-10-09T19:17:32.877Z,44.07
2018-10-09T19:19:38.343Z,41.60
2018-10-09T19:21:42.080Z,40.80
2018-10-09T19:23:47.673Z,41.90
2018-10-09T19:25:53.583Z,49.77
2018-10-09T19:27:59.807Z,44.43
2018-10-09T19:30:07.456Z,41.00
2018-10-09T19:32:13.486Z,40.30
2018-10-09T19:34:17.952Z,38.70
2018-10-09T19:36:23.615Z,41.90
2018-10-09T19:38:28.114Z,42.27
2018-10-09T19:40:35.237Z,39.60
2018-10-09T19:42:40.605Z,36.40
2018-10-09T19:44:44.716Z,37.93
2018-10-09T19:46:48.462Z,34.27
2018-10-09T19:48:55.750Z,34.63
2018-10-09T19:51:02.741Z,31.57
2018-10-09T19:53:07.413Z,35.33
2018-10-09T19:55:14.569Z,35.03
2018-10-09T19:57:19.619Z,36.03
2018-10-09T19:59:23.486Z,33.93
2018-10-09T20:01:27.284Z,32.27
2018-10-09T20:03:31.063Z,34.23
2018-10-09T20:05:35.291Z,31.53
2018-10-09T20:07:39.057Z,29.70
2018-10-09T20:09:42.786Z,31.60
2018-10-09T20:11:46.521Z,29.57
2018-10-09T20:13:50.397Z,29.20
2018-10-09T20:15:55.730Z,32.93
2018-10-09T20:18:00.833Z,31.40
2018-10-09T20:20:06.622Z,30.77
2018-10-09T20:22:11.935Z,32.57
2018-10-09T20:24:15.966Z,28.80
2018-10-09T20:26:20.533Z,35.67
2018-10-09T20:28:24.317Z,33.10
2018-10-09T20:30:28.422Z,27.33
2018-10-09T20:32:32.544Z,27.80
2018-10-09T20:34:37.212Z,33.23
2018-10-09T20:36:42.651Z,33.00
2018-10-09T20:38:47.213Z,31.17
2018-10-09T20:40:52.387Z,28.97
2018-10-09T20:42:59.027Z,31.37
2018-10-09T20:45:03.011Z,29.50
2018-10-09T20:47:09.611Z,29.87
2018-10-09T20:49:13.316Z,28.40
2018-10-09T20:51:17.391Z,32.70
2018-10-09T20:53:21.827Z,31.07
2018-10-09T20:55:26.480Z,27.70
2018-10-09T20:57:32.410Z,29.60
2018-10-09T20:59:37.872Z,32.87
2018-10-09T21:01:41.808Z,28.40
2018-10-09T21:03:46.400Z,29.27
2018-10-09T21:05:52.784Z,28.10
2018-10-09T21:08:00.363Z,32.63
2018-10-09T21:10:06.661Z,28.87
2018-10-09T21:12:10.643Z,29.23
2018-10-09T21:14:15.075Z,27.00
2018-10-09T21:16:20.835Z,27.60
2018-10-09T21:18:25.044Z,35.67
2018-10-09T21:20:31.719Z,31.27
2018-10-09T21:22:36.974Z,31.37
2018-10-09T21:24:42.076Z,29.90
2018-10-09T21:26:46.631Z,27.90
2018-10-09T21:28:51.041Z,29.30
2018-10-09T21:30:55.871Z,29.67
2018-10-09T21:33:00.885Z,28.90
2018-10-09T21:35:05.174Z,28.07
2018-10-09T21:37:10.372Z,35.10
2018-10-09T21:39:15.032Z,30.97
2018-10-09T21:41:21.841Z,29.80
2018-10-09T21:43:29.495Z,31.23
2018-10-09T21:45:36.028Z,29.57
2018-10-09T21:47:46.975Z,29.17
2018-10-09T21:49:50.795Z,28.50
2018-10-09T21:51:54.441Z,29.80
2018-10-09T21:53:58.207Z,29.67
2018-10-09T21:56:01.892Z,28.57
2018-10-09T21:58:05.690Z,29.00
2018-10-09T22:00:10.357Z,30.33
2018-10-09T22:02:14.007Z,31.03
2018-10-09T22:04:17.773Z,32.20
2018-10-09T22:06:21.449Z,29.80
2018-10-09T22:08:25.554Z,32.70
2018-10-09T22:10:29.231Z,27.80
2018-10-09T22:12:32.867Z,34.87
2018-10-09T22:14:36.654Z,33.67
2018-10-09T22:16:40.379Z,28.00
2018-10-09T22:18:44.063Z,30.47
2018-10-09T22:20:47.695Z,28.93
2018-10-09T22:22:51.394Z,28.53
2018-10-09T22:24:55.122Z,31.03
2018-10-09T22:26:58.791Z,30.20
2018-10-09T22:29:02.506Z,32.10
2018-10-09T22:31:06.178Z,29.90
2018-10-09T22:33:09.872Z,30.43
2018-10-09T22:35:14.006Z,26.37
2018-10-09T22:37:18.267Z,30.90
2018-10-09T22:39:21.949Z,35.13
2018-10-09T22:41:25.590Z,32.23
2018-10-09T22:43:29.238Z,29.27
2018-10-09T22:45:32.937Z,31.07
2018-10-09T22:47:36.613Z,29.77
2018-10-09T22:49:40.297Z,26.60
2018-10-09T22:51:43.987Z,32.60
2018-10-09T22:53:47.661Z,31.50
2018-10-09T22:55:51.383Z,30.53
2018-10-09T22:57:55.045Z,29.67
2018-10-09T22:59:58.773Z,29.47
2018-10-09T23:02:02.469Z,29.03
2018-10-09T23:04:06.154Z,32.00
2018-10-09T23:06:09.903Z,29.53
2018-10-09T23:08:13.541Z,34.43
2018-10-09T23:10:17.234Z,32.20
2018-10-09T23:12:20.881Z,34.33
2018-10-09T23:14:24.531Z,37.03
2018-10-09T23:16:28.243Z,30.80
2018-10-09T23:18:31.961Z,37.50
2018-10-09T23:20:35.702Z,32.20
2018-10-09T23:22:39.460Z,33.53
2018-10-09T23:24:43.123Z,35.90
2018-10-09T23:26:46.795Z,36.23
2018-10-09T23:28:50.459Z,34.50
2018-10-09T23:30:54.132Z,29.23
2018-10-09T23:32:57.807Z,42.27
2018-10-09T23:35:01.501Z,36.40
2018-10-09T23:37:05.241Z,33.87
2018-10-09T23:39:09.377Z,33.77
2018-10-09T23:41:13.138Z,29.97
2018-10-09T23:43:16.877Z,31.40
2018-10-09T23:45:20.502Z,33.90
2018-10-09T23:47:24.242Z,30.20
2018-10-09T23:49:28.727Z,32.70
2018-10-09T23:51:32.477Z,33.60
2018-10-09T23:53:36.135Z,32.73
2018-10-09T23:55:39.846Z,36.97
2018-10-09T23:57:43.545Z,37.50
2018-10-09T23:59:47.221Z,34.97
